Horse Springs, New Mexico
Current Conditions -  °F | °C
As of 2:53 AM on Monday 22 Dec 2014 (Local Time) from KTCS Reporting Station
Clear Clear  
Wind Chill: 47°   Ceiling: Unl
Heat Index: 49°   Visibility: 10mi
Dew Point: 31°   Wind: 6mph
Humidity: 50%   Direction: 70°ENE
Pressure: 29.93"   Gusts: NA
Location:  33.8594°N, 108.076°W
Report Text: KTCS 220953Z AUTO 07005KT 10SM CLR 09/M01 A2993 RMK AO2 SLP090 T00941006 TSNO
Loading
Personal Weather Stations






























Interactive Weather Map New forecast layout! Learn more

10-Day Weather Forecast

Advertisements
Track Severe Weather on mobile